Time;durP1;ratioP1;P1;durP2;ratioP2;P2;SDS_P1;SDS_P2;PMS_P1;PMS_P2;Temp;Humidity;BMP_temperature;BMP_pressure;BME280_temperature;BME280_humidity;BME280_pressure;Samples;Min_cycle;Max_cycle;Signal;HPM_P1;HPM_P2
2023/11/29 00:02:11;;;;;;;7.20;6.60;;;;;;;1.40;62.82;95331.22;5093038;28;20923;-67
2023/11/29 00:04:37;;;;;;;8.80;7.90;;;;;;;1.44;62.76;95330.25;5093378;28;20252;-65
2023/11/29 00:07:02;;;;;;;7.53;6.83;;;;;;;1.43;62.41;95326.81;5091958;28;20545;-68
2023/11/29 00:09:28;;;;;;;8.33;7.57;;;;;;;1.50;62.24;95324.09;5093867;28;20165;-66
2023/11/29 00:11:53;;;;;;;7.67;6.87;;;;;;;1.43;62.06;95313.88;5104205;28;20181;-69
2023/11/29 00:14:18;;;;;;;9.53;7.00;;;;;;;1.41;62.15;95322.56;5107304;28;20256;-68
2023/11/29 00:16:44;;;;;;;11.43;8.47;;;;;;;1.48;61.78;95314.59;5105620;28;20176;-66
2023/11/29 00:19:09;;;;;;;6.77;6.13;;;;;;;1.46;61.50;95320.72;5093588;28;20281;-68
2023/11/29 00:21:43;;;;;;;9.23;7.30;;;;;;;1.46;61.65;95316.41;5090971;28;20170;-68
2023/11/29 00:24:09;;;;;;;8.43;6.43;;;;;;;1.54;61.14;95316.22;5090964;28;20191;-68
2023/11/29 00:26:34;;;;;;;11.90;7.70;;;;;;;1.52;61.31;95325.72;5091116;28;20407;-65
2023/11/29 00:28:59;;;;;;;8.30;6.80;;;;;;;1.52;60.96;95327.47;5090791;28;20165;-68
2023/11/29 00:31:25;;;;;;;11.40;7.70;;;;;;;1.42;61.31;95327.72;5091084;28;20185;-67
2023/11/29 00:33:50;;;;;;;11.63;8.50;;;;;;;1.32;61.92;95326.22;5078451;28;20201;-67
2023/11/29 00:36:15;;;;;;;8.40;7.40;;;;;;;1.50;61.52;95327.50;5071086;28;20174;-66
2023/11/29 00:38:41;;;;;;;8.73;7.10;;;;;;;1.54;61.19;95320.53;5071557;28;21143;-67
2023/11/29 00:41:07;;;;;;;8.60;6.87;;;;;;;1.43;60.83;95320.81;5071221;28;20174;-67
2023/11/29 00:43:35;;;;;;;10.67;7.97;;;;;;;1.39;61.13;95322.59;5071385;28;20181;-68
2023/11/29 00:46:01;;;;;;;9.57;6.90;;;;;;;1.36;61.73;95319.25;5073430;28;20189;-68
2023/11/29 00:48:27;;;;;;;7.60;6.87;;;;;;;1.34;61.50;95321.03;5075246;28;20495;-66
2023/11/29 00:50:52;;;;;;;9.90;7.47;;;;;;;1.19;62.37;95310.19;5090621;28;20882;-68
2023/11/29 00:53:18;;;;;;;8.73;7.83;;;;;;;1.22;62.60;95315.28;5096840;28;20188;-68
2023/11/29 00:55:44;;;;;;;10.30;7.83;;;;;;;1.19;62.27;95310.19;5098190;28;20173;-66
2023/11/29 00:58:09;;;;;;;9.70;8.70;;;;;;;1.15;62.74;95305.97;5095478;28;20458;-67
2023/11/29 01:00:35;;;;;;;10.20;9.00;;;;;;;1.21;62.98;95307.56;5094357;28;20166;-68
2023/11/29 01:03:00;;;;;;;8.17;7.30;;;;;;;1.19;62.94;95310.19;5100191;28;20166;-66
2023/11/29 01:05:25;;;;;;;8.93;7.03;;;;;;;1.13;63.34;95312.06;5099478;28;20231;-67
2023/11/29 01:07:51;;;;;;;10.60;7.07;;;;;;;1.15;63.51;95313.72;5099024;28;20704;-66
2023/11/29 01:10:16;;;;;;;9.97;8.20;;;;;;;1.15;63.01;95303.38;5092420;28;20252;-67
2023/11/29 01:12:42;;;;;;;8.47;7.67;;;;;;;1.13;63.63;95314.66;5090338;28;20165;-67
2023/11/29 01:15:07;;;;;;;9.43;7.67;;;;;;;1.16;63.64;95311.97;5090512;28;20697;-65
2023/11/29 01:17:33;;;;;;;9.23;7.87;;;;;;;1.18;63.13;95308.50;5090847;28;20264;-68
2023/11/29 01:19:58;;;;;;;10.30;7.77;;;;;;;1.09;63.80;95310.44;5089650;28;20170;-66
2023/11/29 01:22:23;;;;;;;9.00;8.03;;;;;;;1.09;63.82;95313.03;5090184;28;20169;-68
2023/11/29 01:24:49;;;;;;;8.80;7.13;;;;;;;1.05;63.73;95313.09;5089532;28;20189;-67
2023/11/29 01:27:14;;;;;;;10.27;8.10;;;;;;;0.97;63.93;95307.28;5089648;28;20162;-67
2023/11/29 01:29:40;;;;;;;8.50;7.60;;;;;;;1.00;63.73;95311.53;5089776;28;20578;-66
2023/11/29 01:32:05;;;;;;;13.53;8.37;;;;;;;0.99;64.22;95309.81;5089984;28;20201;-66
2023/11/29 01:34:31;;;;;;;9.90;7.73;;;;;;;1.01;64.36;95314.06;5070896;28;20190;-67
2023/11/29 01:36:56;;;;;;;11.47;8.67;;;;;;;0.96;64.14;95323.66;5069037;28;20178;-67
2023/11/29 01:39:22;;;;;;;10.13;8.57;;;;;;;0.90;64.73;95323.81;5069113;28;20227;-67
2023/11/29 01:41:47;;;;;;;11.97;8.30;;;;;;;0.91;64.44;95316.91;5069460;28;20174;-67
2023/11/29 01:44:13;;;;;;;11.40;8.00;;;;;;;0.82;64.66;95315.38;5069393;28;20213;-67
2023/11/29 01:46:38;;;;;;;8.00;7.20;;;;;;;0.76;64.43;95316.41;5068878;28;20698;-68
2023/11/29 01:49:05;;;;;;;10.37;8.57;;;;;;;0.85;63.99;95315.31;5069381;28;20178;-67
2023/11/29 01:51:30;;;;;;;11.30;8.47;;;;;;;0.92;64.26;95314.31;5085740;28;20218;-67
2023/11/29 01:53:58;;;;;;;9.97;8.47;;;;;;;0.82;64.63;95313.66;5089141;28;20879;-67
2023/11/29 01:56:24;;;;;;;12.73;8.57;;;;;;;0.91;63.97;95312.59;5089081;28;20191;-67
2023/11/29 01:58:49;;;;;;;10.37;8.10;;;;;;;0.83;63.96;95306.78;5089333;28;20952;-67
2023/11/29 02:01:15;;;;;;;14.80;8.10;;;;;;;0.85;64.68;95302.41;5089276;28;20170;-67
2023/11/29 02:03:41;;;;;;;13.97;8.80;;;;;;;0.74;64.58;95300.09;5089075;28;20190;-67
2023/11/29 02:06:07;;;;;;;10.10;8.57;;;;;;;0.94;64.03;95303.91;5088829;28;20173;-66
2023/11/29 02:08:34;;;;;;;10.63;8.60;;;;;;;0.86;64.68;95296.38;5088792;28;20412;-66
2023/11/29 02:11:00;;;;;;;11.10;9.13;;;;;;;0.84;64.46;95295.53;5088721;28;20407;-68
2023/11/29 02:13:25;;;;;;;9.97;8.17;;;;;;;1.01;64.14;95297.72;5088695;28;20414;-68
2023/11/29 02:15:50;;;;;;;9.90;8.27;;;;;;;0.86;64.23;95296.38;5088475;28;20192;-67
2023/11/29 02:18:16;;;;;;;9.63;8.37;;;;;;;0.82;64.38;95300.72;5088656;28;20200;-66
2023/11/29 02:20:41;;;;;;;12.30;8.50;;;;;;;0.84;64.80;95301.56;5087944;28;20170;-68
2023/11/29 02:23:18;;;;;;;10.57;8.47;;;;;;;0.91;64.52;95299.69;5088613;28;20161;-68
2023/11/29 02:25:44;;;;;;;9.03;7.93;;;;;;;0.92;64.00;95297.94;5088085;28;20180;-67
2023/11/29 02:28:09;;;;;;;12.17;9.60;;;;;;;0.74;64.27;95304.41;5088247;28;20407;-68
2023/11/29 02:30:34;;;;;;;13.23;8.40;;;;;;;0.62;64.75;95306.38;5087816;28;20223;-66
2023/11/29 02:33:00;;;;;;;12.13;9.10;;;;;;;0.61;65.12;95303.81;5081958;28;20162;-67
2023/11/29 02:35:25;;;;;;;11.73;9.20;;;;;;;0.65;64.91;95299.44;5067172;28;20294;-68
2023/11/29 02:37:50;;;;;;;9.70;8.70;;;;;;;0.61;65.76;95290.91;5067806;28;20545;-67
2023/11/29 02:40:16;;;;;;;10.33;7.93;;;;;;;0.47;65.88;95283.47;5067580;28;20174;-65
2023/11/29 02:42:41;;;;;;;14.90;9.73;;;;;;;0.59;64.66;95284.94;5067645;28;20173;-68
2023/11/29 02:45:07;;;;;;;9.93;7.80;;;;;;;0.65;64.95;95291.69;5067403;28;20268;-65
2023/11/29 02:47:33;;;;;;;11.40;8.40;;;;;;;0.67;64.58;95300.25;5067431;28;20175;-66
2023/11/29 02:49:58;;;;;;;15.53;9.80;;;;;;;0.72;64.80;95293.25;5075057;28;20187;-68
2023/11/29 02:52:24;;;;;;;13.40;8.40;;;;;;;0.67;64.40;95292.53;5087692;28;20192;-68
2023/11/29 02:54:49;;;;;;;12.70;9.57;;;;;;;0.61;64.21;95296.06;5087975;28;20211;-65
2023/11/29 02:57:14;;;;;;;14.77;8.33;;;;;;;0.68;63.98;95291.63;5087936;28;20201;-67
2023/11/29 02:59:41;;;;;;;9.40;7.33;;;;;;;0.67;63.98;95284.78;5088027;28;20204;-67
2023/11/29 03:02:07;;;;;;;10.77;8.50;;;;;;;0.67;64.32;95292.53;5087729;28;20233;-67
2023/11/29 03:04:32;;;;;;;13.33;8.43;;;;;;;0.49;65.07;95292.03;5087555;28;20437;-66
2023/11/29 03:06:57;;;;;;;18.40;8.27;;;;;;;0.66;64.39;95289.06;5087850;28;20325;-67
2023/11/29 03:09:23;;;;;;;10.20;7.83;;;;;;;0.72;63.86;95294.09;5087438;28;20185;-67
2023/11/29 03:11:48;;;;;;;9.10;7.63;;;;;;;0.61;63.60;95296.94;5087644;28;20205;-66
2023/11/29 03:14:14;;;;;;;9.17;8.10;;;;;;;0.57;63.44;95295.31;5087448;28;20237;-66
2023/11/29 03:16:39;;;;;;;7.80;7.00;;;;;;;0.55;64.44;95281.59;5087116;28;20170;-66
2023/11/29 03:19:05;;;;;;;7.93;6.40;;;;;;;0.52;63.53;95289.41;5087346;28;20201;-67
2023/11/29 03:21:30;;;;;;;10.57;8.10;;;;;;;0.41;64.18;95275.88;5087534;28;20722;-65
2023/11/29 03:23:55;;;;;;;10.20;8.20;;;;;;;0.42;64.40;95278.41;5087792;28;20197;-68
2023/11/29 03:26:21;;;;;;;13.53;7.77;;;;;;;0.44;64.06;95275.81;5087482;28;20180;-68
2023/11/29 03:28:46;;;;;;;10.87;8.43;;;;;;;0.31;64.15;95283.00;5087967;28;21245;-67
2023/11/29 03:31:11;;;;;;;13.03;8.80;;;;;;;0.46;64.33;95286.94;5087250;28;20165;-65
2023/11/29 03:33:37;;;;;;;11.37;8.30;;;;;;;0.37;64.56;95300.06;5077469;28;20198;-67
2023/11/29 03:36:02;;;;;;;12.03;8.60;;;;;;;0.17;65.45;95283.28;5071766;28;20286;-67
2023/11/29 03:38:28;;;;;;;13.63;8.27;;;;;;;0.26;65.08;95276.22;5074345;28;20202;-67
2023/11/29 03:40:53;;;;;;;12.17;9.40;;;;;;;0.33;65.28;95280.34;5071383;28;20955;-69
2023/11/29 03:43:18;;;;;;;10.93;8.47;;;;;;;0.25;65.97;95275.38;5071273;28;20178;-68
2023/11/29 03:45:44;;;;;;;10.87;8.80;;;;;;;0.30;65.84;95283.00;5071409;28;20198;-69
2023/11/29 03:48:09;;;;;;;11.93;9.43;;;;;;;0.30;65.54;95283.84;5070985;28;20636;-70
2023/11/29 03:50:35;;;;;;;10.93;9.27;;;;;;;0.32;65.44;95266.59;5084727;28;20184;-70
2023/11/29 03:53:00;;;;;;;12.33;11.03;;;;;;;0.37;65.43;95269.09;5092927;28;20185;-69
2023/11/29 03:55:25;;;;;;;11.47;8.83;;;;;;;0.43;64.85;95274.13;5091679;28;20193;-69
2023/11/29 03:57:51;;;;;;;9.77;7.60;;;;;;;0.37;65.84;95262.19;5086490;28;20197;-71
2023/11/29 04:00:17;;;;;;;9.80;8.73;;;;;;;0.47;64.83;95262.81;5086698;28;20169;-68
2023/11/29 04:02:42;;;;;;;14.10;7.80;;;;;;;0.48;65.47;95268.88;5085153;28;20226;-69
2023/11/29 04:05:07;;;;;;;11.97;8.23;;;;;;;0.39;65.08;95268.16;5086613;28;20268;-69
2023/11/29 04:07:33;;;;;;;9.33;7.83;;;;;;;0.45;65.43;95264.63;5086362;28;20649;-70
2023/11/29 04:09:58;;;;;;;9.87;7.97;;;;;;;0.49;64.76;95263.63;5086559;28;20166;-69
2023/11/29 04:12:25;;;;;;;11.57;8.70;;;;;;;0.36;65.70;95267.41;5086548;28;20785;-69
2023/11/29 04:14:50;;;;;;;11.63;9.03;;;;;;;0.36;65.50;95275.16;5085924;28;20204;-68
2023/11/29 04:17:16;;;;;;;11.83;7.63;;;;;;;0.30;65.58;95270.94;5086209;28;20415;-69
2023/11/29 04:19:41;;;;;;;9.63;7.17;;;;;;;0.25;65.73;95264.22;5086412;28;20197;-68
2023/11/29 04:22:06;;;;;;;13.57;8.90;;;;;;;0.32;64.97;95273.50;5086338;28;20709;-68
2023/11/29 04:24:33;;;;;;;11.80;8.50;;;;;;;0.17;65.53;95278.13;5086463;28;20200;-69
2023/11/29 04:26:58;;;;;;;15.13;9.00;;;;;;;0.12;66.30;95279.09;5058111;28;20179;-69
2023/11/29 04:29:24;;;;;;;11.90;9.23;;;;;;;0.28;66.25;95271.88;5046040;28;20487;-70
2023/11/29 04:31:49;;;;;;;12.00;8.97;;;;;;;0.18;66.46;95276.38;5055204;28;20558;-69
2023/11/29 04:34:14;;;;;;;11.57;8.13;;;;;;;0.19;65.96;95275.53;5049396;28;20190;-69
2023/11/29 04:36:40;;;;;;;11.50;7.47;;;;;;;0.02;67.15;95275.84;5046015;28;20262;-68
2023/11/29 04:39:06;;;;;;;11.70;8.97;;;;;;;0.13;66.56;95273.06;5047364;28;20198;-69
2023/11/29 04:41:32;;;;;;;13.50;8.53;;;;;;;0.11;66.75;95285.97;5046143;28;20174;-69
2023/11/29 04:43:58;;;;;;;13.23;8.50;;;;;;;0.12;66.65;95277.38;5057321;28;20186;-69
2023/11/29 04:46:24;;;;;;;9.10;7.87;;;;;;;0.02;66.61;95275.84;5070025;28;20195;-69
2023/11/29 04:48:49;;;;;;;12.33;8.20;;;;;;;-0.04;67.22;95283.72;5069879;28;20408;-69
2023/11/29 04:51:14;;;;;;;9.10;7.30;;;;;;;0.03;66.92;95276.72;5087913;28;20599;-70
2023/11/29 04:53:40;;;;;;;11.20;8.20;;;;;;;0.09;67.09;95281.75;5089813;28;20230;-69
2023/11/29 04:56:06;;;;;;;14.10;7.50;;;;;;;0.07;66.98;95274.06;5089276;28;20644;-68
2023/11/29 04:58:36;;;;;;;9.73;7.40;;;;;;;0.05;67.10;95275.81;5089645;28;20225;-69
2023/11/29 05:01:01;;;;;;;12.10;8.10;;;;;;;0.07;66.80;95270.59;5089611;28;20447;-69
2023/11/29 05:03:27;;;;;;;11.90;8.37;;;;;;;0.13;66.20;95276.47;5089820;28;20506;-70
2023/11/29 05:05:52;;;;;;;10.73;7.60;;;;;;;0.19;66.65;95278.09;5089711;28;20204;-69
2023/11/29 05:08:19;;;;;;;9.77;7.93;;;;;;;0.18;66.47;95268.66;5089916;28;20173;-69
2023/11/29 05:10:45;;;;;;;11.30;8.43;;;;;;;0.17;66.29;95272.13;5085771;28;20184;-70
2023/11/29 05:13:10;;;;;;;13.13;9.27;;;;;;;0.12;65.89;95274.78;5060187;28;20424;-70
2023/11/29 05:15:36;;;;;;;10.23;8.17;;;;;;;0.17;66.04;95272.13;5048014;28;20234;-67
2023/11/29 05:18:02;;;;;;;14.00;8.73;;;;;;;0.22;66.60;95275.44;5047766;28;20190;-70
2023/11/29 05:20:28;;;;;;;10.97;8.03;;;;;;;0.23;66.12;95273.72;5047470;28;20178;-69
2023/11/29 05:22:53;;;;;;;15.20;9.10;;;;;;;0.18;66.37;95269.50;5049110;28;20734;-67
2023/11/29 05:25:19;;;;;;;12.27;7.97;;;;;;;0.30;66.63;95278.69;5049192;28;20214;-69
2023/11/29 05:27:45;;;;;;;13.37;9.73;;;;;;;0.30;66.08;95281.28;5048748;28;20178;-70
2023/11/29 05:30:11;;;;;;;12.60;8.57;;;;;;;0.21;66.42;95276.31;5047762;28;20193;-69
2023/11/29 05:32:36;;;;;;;10.50;7.67;;;;;;;0.21;66.42;95276.31;5051946;28;20417;-70
2023/11/29 05:35:02;;;;;;;12.83;7.33;;;;;;;0.19;66.12;95275.53;5069039;28;20186;-69
2023/11/29 05:37:27;;;;;;;12.87;8.53;;;;;;;0.07;66.81;95275.75;5067911;28;20166;-70
2023/11/29 05:39:55;;;;;;;9.37;7.73;;;;;;;0.02;66.40;95287.91;5066573;28;20202;-69
2023/11/29 05:42:20;;;;;;;13.83;8.43;;;;;;;0.09;66.78;95271.41;5064441;28;20174;-68
2023/11/29 05:44:47;;;;;;;10.73;8.10;;;;;;;0.17;66.45;95269.53;5058266;28;20456;-68
2023/11/29 05:47:13;;;;;;;10.23;8.73;;;;;;;0.07;67.12;95271.47;5064740;28;20189;-69
2023/11/29 05:49:39;;;;;;;12.13;8.20;;;;;;;0.22;66.58;95272.88;5079048;28;20412;-69
2023/11/29 05:52:05;;;;;;;12.60;8.97;;;;;;;0.30;66.95;95267.53;5078854;28;20160;-70
2023/11/29 05:54:30;;;;;;;13.37;8.70;;;;;;;0.30;66.82;95272.69;5073726;28;20509;-70
2023/11/29 05:56:57;;;;;;;11.33;9.23;;;;;;;0.25;66.62;95274.53;5070029;28;20457;-71
2023/11/29 05:59:22;;;;;;;12.77;8.50;;;;;;;0.18;67.23;95264.31;5063459;28;20202;-70
2023/11/29 06:01:50;;;;;;;17.27;8.27;;;;;;;0.19;67.81;95268.63;5066475;28;20787;-71
2023/11/29 06:04:15;;;;;;;13.00;9.00;;;;;;;0.27;67.79;95275.34;5064574;28;20194;-71
2023/11/29 06:06:41;;;;;;;14.27;9.73;;;;;;;0.29;67.36;95276.16;5049364;28;20440;-70
2023/11/29 06:09:08;;;;;;;12.57;8.60;;;;;;;0.25;67.87;95282.28;5050958;28;20166;-69
2023/11/29 06:11:39;;;;;;;15.53;8.70;;;;;;;0.30;67.47;95277.84;5048724;28;20198;-70
2023/11/29 06:14:04;;;;;;;14.40;9.10;;;;;;;0.35;67.72;95281.16;5062830;28;20486;-70
2023/11/29 06:16:30;;;;;;;13.73;8.70;;;;;;;0.38;67.20;95275.97;5067312;28;20405;-69
2023/11/29 06:18:55;;;;;;;20.13;9.40;;;;;;;0.34;67.49;95276.91;5064295;28;21176;-71
2023/11/29 06:21:20;;;;;;;16.30;9.77;;;;;;;0.35;67.49;95284.59;5063633;28;20281;-69
2023/11/29 06:23:46;;;;;;;16.83;10.90;;;;;;;0.39;66.93;95275.91;5066629;28;20356;-69
2023/11/29 06:26:12;;;;;;;14.97;10.20;;;;;;;0.45;67.30;95280.09;5066252;28;20189;-70
2023/11/29 06:28:38;;;;;;;18.20;8.87;;;;;;;0.47;67.40;95280.91;5065976;28;20242;-71
2023/11/29 06:31:06;;;;;;;12.40;9.13;;;;;;;0.53;66.81;95274.75;5065459;28;20662;-70
2023/11/29 06:33:31;;;;;;;12.97;8.90;;;;;;;0.60;67.01;95274.56;5065589;28;20419;-71
2023/11/29 06:35:58;;;;;;;12.87;9.33;;;;;;;0.53;67.46;95274.75;5065306;28;20409;-69
2023/11/29 06:38:26;;;;;;;18.47;9.90;;;;;;;0.51;67.81;95277.38;5065916;28;20206;-69
2023/11/29 06:40:52;;;;;;;14.07;10.50;;;;;;;0.59;67.80;95274.59;5067022;28;20492;-70
2023/11/29 06:43:17;;;;;;;12.07;7.50;;;;;;;0.61;67.80;95280.59;5067427;28;20468;-70
2023/11/29 06:45:43;;;;;;;11.70;8.80;;;;;;;0.65;66.98;95277.06;5069116;28;20937;-69
2023/11/29 06:48:08;;;;;;;13.17;9.37;;;;;;;0.72;66.45;95282.94;5073152;28;20977;-70
2023/11/29 06:50:33;;;;;;;15.93;9.17;;;;;;;0.80;66.34;95287.03;5085555;28;20650;-71
2023/11/29 06:53:00;;;;;;;12.47;9.20;;;;;;;0.79;67.13;95279.31;5093708;28;20170;-73
2023/11/29 06:55:26;;;;;;;13.47;9.47;;;;;;;0.76;66.84;95284.56;5095503;28;20200;-70
2023/11/29 06:57:51;;;;;;;14.77;10.60;;;;;;;0.75;67.70;95282.84;5093954;28;20408;-70
2023/11/29 07:00:17;;;;;;;12.07;8.60;;;;;;;0.77;66.73;95279.34;5095082;28;20246;-69
2023/11/29 07:02:44;;;;;;;22.30;9.70;;;;;;;0.79;66.75;95281.91;5099984;28;20198;-70
2023/11/29 07:05:10;;;;;;;15.20;10.00;;;;;;;0.69;67.41;95286.44;5101201;28;20197;-71
2023/11/29 07:07:36;;;;;;;9.63;6.90;;;;;;;1.98;85.87;95274.50;5099798;28;20404;-70
2023/11/29 07:10:03;;;;;;;8.40;6.23;;;;;;;3.60;91.21;95273.72;5088740;28;20506;-68
2023/11/29 07:12:29;;;;;;;19.53;9.23;;;;;;;5.93;82.30;95261.13;5085559;28;21318;-69
2023/11/29 07:14:58;;;;;;;21.63;11.97;;;;;;;2.75;62.84;95273.88;5084251;28;20493;-69
2023/11/29 07:17:23;;;;;;;16.50;10.73;;;;;;;1.74;64.37;95271.69;5086640;28;20407;-70
2023/11/29 07:19:49;;;;;;;13.63;9.30;;;;;;;1.25;66.34;95280.75;5087205;28;20454;-70
2023/11/29 07:22:17;;;;;;;14.10;9.50;;;;;;;1.04;67.48;95277.84;5055121;28;20175;-68
2023/11/29 07:24:46;;;;;;;10.80;9.10;;;;;;;0.82;68.09;95274.06;5046430;28;20226;-69
2023/11/29 07:27:12;;;;;;;17.97;10.10;;;;;;;0.95;67.92;95278.06;5047310;28;21036;-68
2023/11/29 07:29:38;;;;;;;14.03;9.53;;;;;;;1.00;67.72;95273.63;5054066;28;20408;-68
2023/11/29 07:32:07;;;;;;;11.10;8.63;;;;;;;1.13;66.92;95268.16;5056783;28;20205;-68
2023/11/29 07:34:33;;;;;;;13.43;9.87;;;;;;;0.94;67.32;95266.00;5047741;28;20468;-70
2023/11/29 07:36:59;;;;;;;13.27;9.70;;;;;;;0.91;67.94;95270.41;5046562;28;20514;-68
2023/11/29 07:39:26;;;;;;;16.30;9.47;;;;;;;0.87;68.01;95276.53;5065586;28;20767;-70
2023/11/29 07:41:52;;;;;;;17.70;10.43;;;;;;;0.84;68.78;95265.41;5066238;28;20192;-70
2023/11/29 07:44:18;;;;;;;14.43;10.23;;;;;;;0.94;67.74;95276.34;5046851;28;20441;-69
2023/11/29 07:46:44;;;;;;;10.37;7.83;;;;;;;1.07;67.71;95286.41;5046810;28;20178;-71
2023/11/29 07:49:12;;;;;;;12.10;8.23;;;;;;;0.97;67.92;95278.88;5048393;28;20417;-69
2023/11/29 07:51:39;;;;;;;12.00;9.10;;;;;;;0.99;67.43;95271.94;5086915;28;20176;-70
2023/11/29 07:54:06;;;;;;;11.30;9.10;;;;;;;1.23;67.09;95274.78;5055207;28;20937;-71
2023/11/29 07:56:33;;;;;;;11.80;8.10;;;;;;;1.17;67.80;95272.34;5046270;28;20428;-71
2023/11/29 07:58:58;;;;;;;11.20;8.90;;;;;;;0.80;68.24;95265.50;5055684;28;20554;-71
2023/11/29 08:01:23;;;;;;;13.00;9.47;;;;;;;1.14;68.16;95260.38;5065805;28;20428;-70
2023/11/29 08:03:49;;;;;;;9.53;7.47;;;;;;;0.56;69.17;95256.63;5066966;28;20604;-71
2023/11/29 08:06:14;;;;;;;13.97;8.93;;;;;;;1.02;68.22;95263.25;5066090;28;20288;-70
2023/11/29 08:08:40;;;;;;;9.47;6.93;;;;;;;0.94;68.01;95268.59;5066400;28;20178;-70
2023/11/29 08:11:05;;;;;;;11.80;9.23;;;;;;;1.08;68.11;95254.50;5046783;28;20189;-70
2023/11/29 08:13:32;;;;;;;13.30;8.37;;;;;;;1.24;67.63;95255.81;5058259;28;20191;-69
2023/11/29 08:15:57;;;;;;;11.20;8.23;;;;;;;1.04;68.44;95262.34;5045523;28;20182;-69
2023/11/29 08:18:23;;;;;;;11.90;9.13;;;;;;;0.98;68.67;95262.47;5047815;28;20565;-68
2023/11/29 08:20:48;;;;;;;13.23;9.57;;;;;;;1.14;68.66;95262.09;5054742;28;20228;-68
2023/11/29 08:23:13;;;;;;;10.63;8.20;;;;;;;1.25;67.75;95271.28;5053318;28;20183;-72
2023/11/29 08:25:39;;;;;;;11.93;9.70;;;;;;;1.39;67.80;95285.56;5050955;28;20195;-69
2023/11/29 08:28:04;;;;;;;10.90;8.00;;;;;;;1.47;67.16;95284.50;5051139;28;20181;-69
2023/11/29 08:30:30;;;;;;;10.10;8.00;;;;;;;1.53;67.55;95282.63;5061011;28;20178;-71
2023/11/29 08:32:57;;;;;;;13.60;8.00;;;;;;;1.66;67.38;95284.00;5056776;28;20257;-70
2023/11/29 08:35:23;;;;;;;9.37;7.07;;;;;;;1.67;66.78;95290.84;5064122;28;20198;-69
2023/11/29 08:37:48;;;;;;;10.07;8.20;;;;;;;1.69;66.35;95281.31;5050457;28;21059;-69
2023/11/29 08:40:14;;;;;;;8.40;7.27;;;;;;;1.84;66.01;95280.91;5050607;28;20411;-70
2023/11/29 08:42:39;;;;;;;11.20;7.50;;;;;;;1.88;66.34;95279.91;5050117;28;20253;-68
2023/11/29 08:45:05;;;;;;;8.63;6.63;;;;;;;1.94;65.60;95284.09;5049321;28;20194;-69
2023/11/29 08:47:31;;;;;;;10.93;6.83;;;;;;;1.90;65.87;95278.13;5050716;28;20255;-70
2023/11/29 08:49:56;;;;;;;10.03;7.60;;;;;;;1.87;65.69;95277.41;5074427;28;20887;-70
2023/11/29 08:52:22;;;;;;;8.27;6.97;;;;;;;3.14;63.81;95265.75;5069674;28;20257;-68
2023/11/29 08:54:49;;;;;;;8.33;7.43;;;;;;;5.99;54.04;95255.66;5058278;28;20281;-68
2023/11/29 08:57:17;;;;;;;10.70;7.10;;;;;;;6.53;51.01;95254.06;5048940;28;20187;-68
2023/11/29 08:59:43;;;;;;;7.60;6.70;;;;;;;5.56;53.03;95262.69;5049175;28;20534;-70
2023/11/29 09:02:09;;;;;;;8.90;6.83;;;;;;;4.51;56.01;95265.19;5058795;28;20420;-71
2023/11/29 09:04:34;;;;;;;7.77;6.50;;;;;;;3.85;58.17;95271.09;5069610;28;20429;-70
2023/11/29 09:07:04;;;;;;;7.80;6.80;;;;;;;3.44;59.97;95272.53;5057798;28;20232;-71
2023/11/29 09:09:30;;;;;;;10.47;7.37;;;;;;;3.09;61.27;95266.78;5058034;28;20181;-70
2023/11/29 09:11:55;;;;;;;9.57;7.87;;;;;;;2.99;61.64;95257.63;5069894;28;20430;-71
2023/11/29 09:14:21;;;;;;;8.90;6.87;;;;;;;2.85;62.04;95252.88;5070978;28;20982;-70
2023/11/29 09:16:46;;;;;;;10.30;6.73;;;;;;;2.76;61.72;95243.66;5069083;28;20174;-70
2023/11/29 09:19:11;;;;;;;10.20;7.73;;;;;;;2.65;62.68;95245.75;5069095;28;21039;-71
2023/11/29 09:21:37;;;;;;;8.40;6.47;;;;;;;2.66;62.64;95250.03;5069520;28;20190;-71
2023/11/29 09:24:04;;;;;;;9.87;6.77;;;;;;;2.65;62.07;95249.19;5069092;28;20684;-71
2023/11/29 09:26:30;;;;;;;14.27;6.70;;;;;;;2.59;63.03;95253.69;5069716;28;20649;-69
2023/11/29 09:28:55;;;;;;;7.90;6.20;;;;;;;2.63;62.91;95257.91;5069373;28;20411;-70
2023/11/29 09:31:21;;;;;;;9.67;5.90;;;;;;;2.55;62.83;95255.53;5069457;28;20166;-67
2023/11/29 09:33:46;;;;;;;15.57;8.07;;;;;;;2.64;62.61;95259.59;5057153;28;20259;-68
2023/11/29 09:36:12;;;;;;;8.60;6.57;;;;;;;2.70;62.73;95259.41;5050110;28;20170;-71
2023/11/29 09:38:39;;;;;;;8.43;7.53;;;;;;;2.70;62.76;95260.25;5050301;28;20250;-68
2023/11/29 09:41:06;;;;;;;9.40;6.90;;;;;;;2.80;62.38;95260.78;5049987;28;20413;-70
2023/11/29 09:43:34;;;;;;;8.03;6.27;;;;;;;2.85;61.34;95258.06;5060954;28;20971;-70
2023/11/29 09:46:00;;;;;;;17.23;6.47;;;;;;;2.88;61.73;95251.06;5069406;28;20423;-69
2023/11/29 09:48:26;;;;;;;8.13;6.33;;;;;;;3.13;61.82;95245.88;5071418;28;20404;-69
2023/11/29 09:50:52;;;;;;;12.00;6.80;;;;;;;3.12;61.12;95252.00;5088756;28;20439;-70
2023/11/29 09:53:17;;;;;;;6.83;5.93;;;;;;;2.83;61.12;95249.47;5096931;28;20169;-68
2023/11/29 09:55:43;;;;;;;15.00;6.80;;;;;;;3.16;60.71;95250.97;5095683;28;20192;-71
2023/11/29 09:58:10;;;;;;;8.43;5.90;;;;;;;3.18;60.81;95248.31;5093745;28;20624;-70
2023/11/29 10:00:35;;;;;;;20.63;6.97;;;;;;;3.12;60.00;95262.34;5092604;28;20223;-70
2023/11/29 10:03:14;;;;;;;12.03;6.13;;;;;;;3.20;59.96;95250.88;5091880;28;20481;-69
2023/11/29 10:05:44;;;;;;;11.23;6.17;;;;;;;3.26;59.83;95255.84;5089936;28;20189;-69
2023/11/29 10:08:10;;;;;;;7.37;5.73;;;;;;;3.34;59.98;95243.47;5089783;28;20399;-71
2023/11/29 10:10:36;;;;;;;9.30;6.37;;;;;;;3.72;59.40;95249.06;5089671;28;20438;-69
2023/11/29 10:13:02;;;;;;;16.40;6.00;;;;;;;3.93;57.63;95237.09;5089375;28;20166;-69
2023/11/29 10:15:27;;;;;;;7.07;5.13;;;;;;;4.33;56.48;95239.03;5088151;28;20454;-68
2023/11/29 10:17:54;;;;;;;8.50;5.37;;;;;;;4.32;55.33;95226.94;5088623;28;20170;-68
2023/11/29 10:20:24;;;;;;;5.93;4.83;;;;;;;4.34;55.45;95214.75;5081319;28;20262;-70
2023/11/29 10:22:49;;;;;;;9.00;5.20;;;;;;;4.35;54.90;95206.06;5068926;28;20424;-68
2023/11/29 10:25:20;;;;;;;5.60;4.87;;;;;;;4.27;54.99;95212.44;5068424;28;20444;-69
2023/11/29 10:27:46;;;;;;;13.30;5.50;;;;;;;4.06;55.69;95208.91;5070702;28;20568;-69
2023/11/29 10:30:15;;;;;;;8.50;4.70;;;;;;;4.16;55.68;95216.31;5054322;28;20413;-69
2023/11/29 10:32:43;;;;;;;5.13;4.53;;;;;;;4.24;55.75;95203.88;5050562;28;20259;-70
2023/11/29 10:35:12;;;;;;;10.17;5.20;;;;;;;4.83;54.54;95201.56;5048871;28;20473;-69
2023/11/29 10:37:44;;;;;;;7.10;5.53;;;;;;;5.03;53.74;95203.34;5048593;28;20406;-68
2023/11/29 10:40:14;;;;;;;6.67;5.67;;;;;;;5.18;53.70;95188.88;5051734;28;20408;-68
2023/11/29 10:42:45;;;;;;;8.00;6.30;;;;;;;5.49;53.09;95185.81;5053357;28;20437;-68
2023/11/29 10:45:19;;;;;;;9.53;5.00;;;;;;;5.69;52.22;95184.91;5054385;28;20480;-71
2023/11/29 10:48:01;;;;;;;9.63;5.67;;;;;;;5.99;51.55;95180.13;5055413;28;20909;-70
2023/11/29 10:50:28;;;;;;;6.53;4.90;;;;;;;5.96;51.19;95180.28;5079054;28;20400;-67
2023/11/29 10:52:54;;;;;;;9.37;5.73;;;;;;;6.19;50.57;95186.19;5099783;28;20461;-69
2023/11/29 10:55:21;;;;;;;12.13;5.70;;;;;;;6.28;50.29;95186.63;5093556;28;20424;-70
2023/11/29 10:58:08;;;;;;;6.00;5.20;;;;;;;6.32;49.82;95192.53;5091145;28;20173;-68
2023/11/29 11:00:34;;;;;;;7.97;5.50;;;;;;;6.42;49.21;95192.94;5092023;28;21213;-69
2023/11/29 11:03:03;;;;;;;11.20;5.07;;;;;;;6.19;49.31;95186.19;5086949;28;20415;-69
2023/11/29 11:05:30;;;;;;;10.40;6.00;;;;;;;5.86;50.59;95192.84;5086554;28;21267;-69
2023/11/29 11:07:55;;;;;;;23.60;6.43;;;;;;;5.59;51.83;95189.69;5086825;28;20435;-66
2023/11/29 11:10:23;;;;;;;12.20;5.63;;;;;;;5.61;51.15;95182.66;5087409;28;20479;-69
2023/11/29 11:12:49;;;;;;;5.93;4.60;;;;;;;5.49;51.72;95181.44;5088105;28;20176;-69
2023/11/29 11:15:23;;;;;;;10.90;5.60;;;;;;;5.46;52.39;95181.59;5087414;28;20506;-68
2023/11/29 11:18:01;;;;;;;9.30;5.73;;;;;;;5.42;52.17;95168.78;5098584;28;20407;-71
2023/11/29 11:20:40;;;;;;;13.47;6.53;;;;;;;5.41;52.57;95178.34;5102850;28;20439;-68
2023/11/29 11:23:06;;;;;;;5.53;4.97;;;;;;;5.37;52.03;95175.94;5104494;28;20433;-69
2023/11/29 11:25:31;;;;;;;5.50;5.00;;;;;;;5.44;52.17;95174.75;5090023;28;20451;-68
2023/11/29 11:27:57;;;;;;;5.43;4.93;;;;;;;5.37;52.03;95173.34;5087487;28;20185;-68
2023/11/29 11:30:26;;;;;;;5.87;4.67;;;;;;;5.39;52.20;95169.75;5057050;28;20190;-67
2023/11/29 11:32:54;;;;;;;6.17;4.73;;;;;;;5.41;52.20;95165.34;5050959;28;20249;-67